Winchendon Springs, MA (01477)

10:09 AM EST on February 14, 2016 (GMT -0500)
Lake Monomonac | | Change Station
CLOSE
Current Station
Personal Weather Station
Location: Rindge, NH
Elevation: 1047 ft
Nearby Weather Stations
Active Advisory: Wind Chill Warning Active Notice: Record Report

Elev 1047 ft 42.71 °N, 72.00 °W | Updated 6 minutes ago

Clear
Clear
-8.1 °F
Feels Like -24 °F
N
8.3
Wind Variable Wind from WNW

Today
High -- | Low -- °F
--% Chance of Precip.
Yesterday
High -- | Low -- °F
Precip. -- in
Pressure 30.41 in
Visibility 10.0 miles
Clouds Clear
Windchill -24 °F
Dew Point -21 °F
Humidity 51%
Rainfall 0.00 in
Snow Depth Not available.
6:47 AM 5:17 PM
Waxing Crescent, 42% visible
METAR KAFN 141452Z AUTO VRB04KT 10SM UP CLR M22/M31 A3029 RMK AO2 UPB26 SLP297 P0000 60000 T12171306 51020
Pressure 30.41 in
Visibility 10.0 miles
Clouds Clear
Windchill -24 °F
Dew Point -21 °F
Humidity 51%
Rainfall 0.00 in
Snow Depth Not available.
6:47 AM 5:17 PM
Waxing Crescent, 42% visible
METAR KAFN 141452Z AUTO VRB04KT 10SM UP CLR M22/M31 A3029 RMK AO2 UPB26 SLP297 P0000 60000 T12171306 51020

10-Day Weather Forecast

Almanac

Astronomy

Feb. 14, 2016 Rise Set
Actual Time
Civil Twilight
Nautical Twilight
Astronomical Twilight
Moon
Length of Visible Light
Length of Day
Tomorrow will be .
, % of the Moon is Illuminated

Today's Extremes

State Highs State Lows

Community

WunderPhotos

Upload Photos

1,892,782 photos uploaded!

WunderBlog® & News

Nearby

Air Quality

  Air Quality AQ Index Pollutant
Not available.

Snow Depth

Station Depth Elevation

Earthquake Activity

City Distance Mag. Time & Date
Minimum magnitude displayed is 2.5.

Coastal Water Temperatures

Place Temperature

Stations

Nearby Weather Stations

Station Location Temp. Windchill Dew Point Humidity Wind Precip. Elev Updated Type
                   

Watches & Warnings

Wind Chill Warning
Issued: 4:13 AM EST Feb. 14, 2016 – National Weather Service

... Wind chill warning remains in effect until noon EST today...

* locations... include all of southern New England except Cape
Cod and the islands.

* Hazard types... life threatening wind chills.

* Wind chill readings... between 25 and 40 below zero.

* Timing... the worst of the wind chills will be this morning.

* Impacts... wind chills this cold can bring on frostbite in as
little as 10 minutes! Outdoor exposure should be limited in
these conditions.

* Air temperatures... lows between 8 and 16 below zero early this
morning with even a few colder spots over the higher terrain.

Precautionary/preparedness actions...

A wind chill warning is issued when the wind chill index is
likely to fall to -25 degrees or colder for at least 3 hours. A
wind chill index below -30 can bring about frostbite in as little
as 10 minutes. Outdoor exposure should be limited. If you are
heading outdoors... dress in layers and keep your hands and head
covered to protect against frostbite